Nearby METAR Reports for Burr Ridge, IL

 

KMDW - Chicago, Illinois, USA
Distance from station: ENE 8mi, 13km
Updated: Thu, 22-Aug-2019 12:53am MST
Overcast
Overcast
 Wind from N
Wind: N 3 mph , 6 km/h
Temperature: 73°F , 23°C
Dew Point: 63°F , 17°C
Humidity: 69%
Barometer: 29.97 inHg , 1014.9 hPa
Clouds: Overcast
Visibility: 10 miles , 16 km
Cloud details: Partly cloudy 4600 ft
Overcast 13000 ft
2019/08/22 07:53 KMDW 220753Z 35003KT 10SM SCT046 OVC130 23/17 A2997 RMK AO2 SLP137 T02280167
KLOT - Romeoville/Chi, Illinois, USA
Distance from station: SW 15mi, 24km
Updated: Thu, 22-Aug-2019 1:15am MST
Overcast
Overcast
 Wind from calm
Wind: Calm
Temperature: 70°F , 21°C
Dew Point: 63°F , 17°C
Humidity: 78%
Barometer: 29.98 inHg , 1015.2 hPa
Clouds: Overcast
Visibility: 10 miles , 16 km
Cloud details: Overcast 12000 ft
2019/08/22 08:15 KLOT 220815Z AUTO 00000KT 10SM OVC120 21/17 A2998 RMK AO2 T02050170
 
KORD - Chicago O'hare, Illinois, USA
Distance from station: N 16mi, 25km
Updated: Thu, 22-Aug-2019 12:51am MST
Overcast
Overcast
 Wind from N
Wind: N 6 mph , 9 km/h
Temperature: 68°F , 20°C
Dew Point: 57°F , 14°C
Humidity: 69%
Barometer: 29.97 inHg , 1014.9 hPa
Clouds: Overcast
Visibility: 10 miles , 16 km
Cloud details: Few Clouds 2500 ft
Overcast 12000 ft
2019/08/22 07:51 KORD 220751Z 35005KT 10SM FEW025 OVC120 20/14 A2997 RMK AO2 SLP144 T02000144
KDPA - Chicago/Dupage, Illinois, USA
Distance from station: WNW 21mi, 34km
Updated: Wed, 21-Aug-2019 10:52pm MST
NOT Current
Clear
Clear
 Wind from N
Wind: N 5 mph , 7 km/h
Temperature: 70°F , 21°C
Dew Point: 63°F , 17°C
Humidity: 78%
Barometer: 29.99 inHg , 1015.6 hPa
Clouds: Clear
Visibility: 10 miles , 16 km
2019/08/22 05:52 KDPA 220552Z 36004KT 10SM CLR 21/17 A2999 RMK AO2 SLP148 T02060167 10239 20206 402830167 58003
 
KJOT - Joliet, Illinois, USA
Distance from station: SW 22mi, 36km
Updated: Thu, 22-Aug-2019 1:15am MST
Overcast
Overcast
 Wind from calm
Wind: Calm
Temperature: 72°F , 22°C
Dew Point: 66°F , 19°C
Humidity: 83%
Barometer: 29.97 inHg , 1014.9 hPa
Clouds: Overcast
Visibility: 10 miles , 16 km
Cloud details: Mostly cloudy 3800 ft
Overcast 12000 ft
2019/08/22 08:15 KJOT 220815Z AUTO 00000KT 10SM BKN038 OVC120 22/19 A2997 RMK AO2 T02170186
KIGQ - Chicago/Lansing, Illinois, USA
Distance from station: SE 24mi, 39km
Updated: Thu, 22-Aug-2019 1:15am MST
Overcast
Overcast
 Wind from calm
Wind: Calm
Temperature: 72°F , 22°C
Dew Point: 68°F , 20°C
Humidity: 88%
Barometer: 29.97 inHg , 1014.9 hPa
Clouds: Overcast
Visibility: 10 miles , 16 km
Cloud details: Partly cloudy 2000 ft
Partly cloudy 2400 ft
Overcast 3500 ft
2019/08/22 08:15 KIGQ 220815Z AUTO 00000KT 10SM SCT020 SCT024 OVC035 22/20 A2997 RMK AO2 T02170200
 
KPWK - Palwaukee, Illinois, USA
Distance from station: N 25mi, 40km
Updated: Thu, 22-Aug-2019 12:52am MST
Clear
Clear
 Wind from NNW
Wind: NNW 3 mph , 6 km/h
Temperature: 70°F , 21°C
Dew Point: 59°F , 15°C
Humidity: 69%
Barometer: 29.98 inHg , 1015.2 hPa
Clouds: Clear
Visibility: 10 miles , 16 km
2019/08/22 07:52 KPWK 220752Z AUTO 34003KT 10SM CLR 21/15 A2998 RMK AO2 SLP146 T02060150
KGYY - Gary Regional, Indiana, USA
Distance from station: ESE 27mi, 43km
Updated: Thu, 22-Aug-2019 1:15am MST
Partly cloudy
Partly cloudy
 Wind from NNE
Wind: NNE 6 mph , 9 km/h
Temperature: 73°F , 23°C
Dew Point: 61°F , 16°C
Humidity: 65%
Barometer: 29.97 inHg , 1014.9 hPa
Clouds: Partly cloudy
Visibility: 10 miles , 16 km
Cloud details: Partly cloudy 12000 ft
2019/08/22 08:15 KGYY 220815Z AUTO 03005KT 10SM SCT120 23/16 A2997 RMK AO2 T02310158
 
KARR - Chicago/Aurora, Illinois, USA
Distance from station: W 30mi, 48km
Updated: Thu, 22-Aug-2019 12:52am MST
Overcast
Overcast
 Wind from calm
Wind: Calm
Temperature: 66°F , 19°C
Dew Point: 63°F , 17°C
Humidity: 88%
Barometer: 29.97 inHg , 1014.9 hPa
Clouds: Overcast
Visibility: 10 miles , 16 km
Cloud details: Overcast 12000 ft
2019/08/22 07:52 KARR 220752Z AUTO 00000KT 10SM OVC120 19/17 A2997 RMK AO2 SLP145 T01890172 TSNO
KC09 - Morris-Washburn, Illinois, USA
Distance from station: SW 35mi, 56km
Updated: Thu, 22-Aug-2019 1:15am MST
Overcast
Overcast
 Wind from calm
Wind: Calm
Temperature: 68°F , 20°C
Dew Point: 66°F , 19°C
Humidity: 94%
Barometer: 29.97 inHg , 1014.9 hPa
Clouds: Overcast
Visibility: 10 miles , 16 km
Cloud details: Overcast 11000 ft
2019/08/22 08:15 KC09 220815Z AUTO 00000KT 10SM OVC110 20/19 A2997 RMK AO2 T02020193
 
KDKB - De Kalb, Illinois, USA
Distance from station: WNW 43mi, 69km
Updated: Thu, 22-Aug-2019 12:55am MST
Clear
Clear
 Wind from N
Wind: N 5 mph , 7 km/h
Temperature: 64°F , 18°C
Dew Point: 63°F , 17°C
Humidity: 94%
Barometer: 29.99 inHg , 1015.6 hPa
Clouds: Clear
Visibility: 10 miles , 16 km
2019/08/22 07:55 KDKB 220755Z AUTO 36004KT 10SM CLR 18/17 A2999 RMK AO2 T01800166
KUGN - Waukegan, Illinois, USA
Distance from station: N 46mi, 73km
Updated: Thu, 22-Aug-2019 12:55am MST
Clear
Clear
 Wind from N
Wind: N 5 mph , 7 km/h
Temperature: 66°F , 19°C
Dew Point: 57°F , 14°C
Humidity: 73%
Barometer: 29.97 inHg , 1014.9 hPa
Clouds: Clear
Visibility: 10 miles , 16 km
2019/08/22 07:55 KUGN 220755Z AUTO 35004KT 10SM CLR 19/14 A2997 RMK AO2 SLP137 T01890139
 
KIKK - Kankakee, Illinois, USA
Distance from station: S 48mi, 77km
Updated: Thu, 22-Aug-2019 1:15am MST
Overcast
Overcast
 Wind from N
Wind: N 6 mph , 9 km/h
Temperature: 72°F , 22°C
Dew Point: 70°F , 21°C
Humidity: 94%
Barometer: 29.97 inHg , 1014.9 hPa
Clouds: Overcast
Visibility: 10 miles , 16 km
Cloud details: Overcast 2900 ft
2019/08/22 08:15 KIKK 220815Z AUTO 35005KT 10SM OVC029 22/21 A2997 RMK AO2 T02160212